createdAt,value
2022-11-17T00:00:49.303Z,6.90
2022-11-17T00:01:48.327Z,6.90
2022-11-17T00:02:48.347Z,7.00
2022-11-17T00:03:48.272Z,7.00
2022-11-17T00:04:48.262Z,7.10
2022-11-17T00:05:48.251Z,7.50
2022-11-17T00:06:48.359Z,7.20
2022-11-17T00:07:48.259Z,6.80
2022-11-17T00:08:48.244Z,7.10
2022-11-17T00:09:48.227Z,6.80
2022-11-17T00:10:48.236Z,7.00
2022-11-17T00:11:48.233Z,6.90
2022-11-17T00:12:48.204Z,7.60
2022-11-17T00:13:48.202Z,7.40
2022-11-17T00:14:48.194Z,7.00
2022-11-17T00:15:48.186Z,6.60
2022-11-17T00:16:48.213Z,6.90
2022-11-17T00:17:48.179Z,7.10
2022-11-17T00:18:48.163Z,7.40
2022-11-17T00:20:20.842Z,7.30
2022-11-17T00:20:48.152Z,6.40
2022-11-17T00:21:48.143Z,5.70
2022-11-17T00:22:48.166Z,6.00
2022-11-17T00:23:48.469Z,5.30
2022-11-17T00:24:48.115Z,5.20
2022-11-17T00:25:48.104Z,5.80
2022-11-17T00:26:48.104Z,5.40
2022-11-17T00:27:48.113Z,5.70
2022-11-17T00:28:48.119Z,5.80
2022-11-17T00:29:48.078Z,5.70
2022-11-17T00:30:48.076Z,5.80
2022-11-17T00:31:48.081Z,5.60
2022-11-17T00:32:48.126Z,5.60
2022-11-17T00:33:48.052Z,5.70
2022-11-17T00:34:48.053Z,6.10
2022-11-17T00:35:48.044Z,6.20
2022-11-17T00:36:48.024Z,6.20
2022-11-17T00:37:48.124Z,7.10
2022-11-17T00:38:48.085Z,6.60
2022-11-17T00:39:48.006Z,6.50
2022-11-17T00:40:47.997Z,6.80
2022-11-17T00:41:47.985Z,7.40
2022-11-17T00:42:48.013Z,8.10
2022-11-17T00:43:47.975Z,7.60
2022-11-17T00:44:47.968Z,7.80
2022-11-17T00:45:47.954Z,7.90
2022-11-17T00:46:47.951Z,7.40
2022-11-17T00:47:47.967Z,7.40
2022-11-17T00:48:47.932Z,7.00
2022-11-17T00:49:48.927Z,7.50
2022-11-17T00:50:47.916Z,7.10
2022-11-17T00:51:47.935Z,6.80
2022-11-17T00:52:47.933Z,6.70
2022-11-17T00:53:47.898Z,6.50
2022-11-17T00:54:47.969Z,6.20
2022-11-17T00:55:47.912Z,6.50
2022-11-17T00:56:48.881Z,6.40
2022-11-17T00:57:47.901Z,6.50
2022-11-17T00:58:47.877Z,6.40
2022-11-17T00:59:47.858Z,6.60
2022-11-17T01:00:47.847Z,6.40
2022-11-17T01:01:47.895Z,6.60
2022-11-17T01:02:48.210Z,6.40
2022-11-17T01:03:47.827Z,6.40
2022-11-17T01:04:47.823Z,6.40
2022-11-17T01:05:47.818Z,6.30
2022-11-17T01:06:47.785Z,6.30
2022-11-17T01:07:48.812Z,6.30
2022-11-17T01:08:47.788Z,6.70
2022-11-17T01:09:47.774Z,6.30
2022-11-17T01:10:47.801Z,6.60
2022-11-17T01:11:47.779Z,6.50
2022-11-17T01:12:47.787Z,6.30
2022-11-17T01:13:47.750Z,6.70
2022-11-17T01:14:47.740Z,6.50
2022-11-17T01:15:47.735Z,6.50
2022-11-17T01:16:47.722Z,6.50
2022-11-17T01:17:47.749Z,5.90
2022-11-17T01:18:47.728Z,6.10
2022-11-17T01:19:47.712Z,6.40
2022-11-17T01:20:47.697Z,6.40
2022-11-17T01:21:47.685Z,6.20
2022-11-17T01:22:47.718Z,6.30
2022-11-17T01:23:47.672Z,6.50
2022-11-17T01:24:47.655Z,6.20
2022-11-17T01:25:47.656Z,6.40
2022-11-17T01:26:47.726Z,5.80
2022-11-17T01:27:47.676Z,6.40
2022-11-17T01:28:47.632Z,6.50
2022-11-17T01:29:47.633Z,6.30
2022-11-17T01:30:47.610Z,6.50
2022-11-17T01:31:47.615Z,6.90
2022-11-17T01:32:47.637Z,6.40
2022-11-17T01:33:47.591Z,6.30
2022-11-17T01:34:47.582Z,6.70
2022-11-17T01:35:47.580Z,6.40
2022-11-17T01:36:47.579Z,6.80
2022-11-17T01:37:47.561Z,6.30
2022-11-17T01:38:47.598Z,6.10
2022-11-17T01:39:47.556Z,6.20
2022-11-17T01:40:47.558Z,6.70
2022-11-17T01:41:47.560Z,6.50
2022-11-17T01:42:47.601Z,6.60
2022-11-17T01:43:48.055Z,6.50
2022-11-17T01:44:47.518Z,6.90
2022-11-17T01:45:47.516Z,6.80
2022-11-17T01:46:47.496Z,6.90
2022-11-17T01:47:47.495Z,6.50
2022-11-17T01:48:47.511Z,6.70
2022-11-17T01:49:47.478Z,6.90
2022-11-17T01:50:47.479Z,6.80
2022-11-17T01:51:47.461Z,6.60
2022-11-17T01:52:47.464Z,6.40
2022-11-17T01:53:47.478Z,6.70
2022-11-17T01:54:47.439Z,6.10
2022-11-17T01:55:47.436Z,5.90
2022-11-17T01:56:47.420Z,5.50
2022-11-17T01:57:47.414Z,5.20
2022-11-17T01:58:47.503Z,5.50
2022-11-17T01:59:47.420Z,5.40
2022-11-17T02:00:47.401Z,5.50
2022-11-17T02:01:47.460Z,4.90
2022-11-17T02:02:47.388Z,5.20
2022-11-17T02:03:47.420Z,5.30
2022-11-17T02:04:47.361Z,5.00
2022-11-17T02:05:47.347Z,5.30
2022-11-17T02:06:48.356Z,5.80
2022-11-17T02:07:47.344Z,6.00
2022-11-17T02:08:47.364Z,5.90
2022-11-17T02:09:47.328Z,6.00
2022-11-17T02:10:51.641Z,6.50
2022-11-17T02:11:48.310Z,6.40
2022-11-17T02:12:47.409Z,6.40
2022-11-17T02:13:47.315Z,6.10
2022-11-17T02:14:47.359Z,6.30
2022-11-17T02:15:47.282Z,6.60
2022-11-17T02:16:47.276Z,6.30
2022-11-17T02:17:47.259Z,6.10
2022-11-17T02:18:47.288Z,6.80
2022-11-17T02:19:47.245Z,6.60
2022-11-17T02:20:47.243Z,6.10
2022-11-17T02:21:47.253Z,6.40
2022-11-17T02:22:47.244Z,6.60
2022-11-17T02:23:47.247Z,6.10
2022-11-17T02:24:47.208Z,6.60
2022-11-17T02:25:47.196Z,5.80
2022-11-17T02:26:47.193Z,6.00
2022-11-17T02:27:47.191Z,6.60
2022-11-17T02:28:47.412Z,6.80
2022-11-17T02:29:47.166Z,6.00
2022-11-17T02:30:47.229Z,6.50
2022-11-17T02:31:47.782Z,5.80
2022-11-17T02:32:47.147Z,5.80
2022-11-17T02:33:47.137Z,6.00
2022-11-17T02:34:47.173Z,6.50
2022-11-17T02:35:47.126Z,6.30
2022-11-17T02:36:47.112Z,6.30
2022-11-17T02:37:47.107Z,6.10
2022-11-17T02:38:47.115Z,5.60
2022-11-17T02:39:47.124Z,6.50
2022-11-17T02:40:47.089Z,6.60
2022-11-17T02:41:47.083Z,5.70
2022-11-17T02:42:47.072Z,6.30
2022-11-17T02:43:47.059Z,6.40
2022-11-17T02:44:47.103Z,6.50
2022-11-17T02:45:47.058Z,6.10
2022-11-17T02:46:47.135Z,6.00
2022-11-17T02:47:47.039Z,6.60
2022-11-17T02:48:47.072Z,7.00
2022-11-17T02:49:47.050Z,6.00
2022-11-17T02:50:47.023Z,6.40
2022-11-17T02:51:47.017Z,6.50
2022-11-17T02:52:47.024Z,6.10
2022-11-17T02:53:46.983Z,6.10
2022-11-17T02:54:47.004Z,6.00
2022-11-17T02:55:46.984Z,6.20
2022-11-17T02:56:46.967Z,6.60
2022-11-17T02:57:46.956Z,6.30
2022-11-17T02:58:46.956Z,6.30
2022-11-17T02:59:46.971Z,6.70
2022-11-17T03:00:46.940Z,6.20
2022-11-17T03:01:46.983Z,6.20
2022-11-17T03:02:47.000Z,6.10
2022-11-17T03:03:46.913Z,6.60
2022-11-17T03:04:46.995Z,6.20
2022-11-17T03:05:46.897Z,5.90
2022-11-17T03:06:46.886Z,6.10
2022-11-17T03:07:46.883Z,6.00
2022-11-17T03:08:46.866Z,5.80
2022-11-17T03:09:46.892Z,6.50
2022-11-17T03:10:46.852Z,6.90
2022-11-17T03:11:46.864Z,6.50
2022-11-17T03:12:46.846Z,6.50
2022-11-17T03:13:46.839Z,6.60
2022-11-17T03:14:46.854Z,6.40
2022-11-17T03:15:46.813Z,6.10
2022-11-17T03:16:46.812Z,6.40
2022-11-17T03:17:46.799Z,6.40
2022-11-17T03:18:46.885Z,6.40
2022-11-17T03:19:46.824Z,6.30
2022-11-17T03:20:46.793Z,6.30
2022-11-17T03:21:46.773Z,6.10
2022-11-17T03:22:46.759Z,6.50
2022-11-17T03:23:46.767Z,6.40
2022-11-17T03:24:46.774Z,6.50
2022-11-17T03:25:46.737Z,6.50
2022-11-17T03:26:46.737Z,6.60
2022-11-17T03:27:46.726Z,6.80
2022-11-17T03:28:46.710Z,6.10
2022-11-17T03:29:46.733Z,6.50
2022-11-17T03:30:46.710Z,6.30
2022-11-17T03:31:46.687Z,6.30
2022-11-17T03:32:46.686Z,6.70
2022-11-17T03:33:46.691Z,6.40
2022-11-17T03:34:46.764Z,6.30
2022-11-17T03:35:50.715Z,6.50
2022-11-17T03:36:47.644Z,6.00
2022-11-17T03:37:46.642Z,6.40
2022-11-17T03:38:46.626Z,6.00
2022-11-17T03:39:46.660Z,6.20
2022-11-17T03:40:46.625Z,5.70
2022-11-17T03:41:46.600Z,6.00
2022-11-17T03:42:46.599Z,6.30
2022-11-17T03:43:46.594Z,6.20
2022-11-17T03:44:46.644Z,6.10
2022-11-17T03:45:46.578Z,6.10
2022-11-17T03:46:46.573Z,6.40
2022-11-17T03:47:46.577Z,5.90
2022-11-17T03:48:46.560Z,6.00
2022-11-17T03:49:46.544Z,6.30
2022-11-17T03:50:46.641Z,6.00
2022-11-17T03:51:46.541Z,5.80
2022-11-17T03:52:46.533Z,6.20
2022-11-17T03:53:46.525Z,6.00
2022-11-17T03:54:46.518Z,6.90
2022-11-17T03:55:46.538Z,6.20
2022-11-17T03:56:46.493Z,6.10
2022-11-17T03:57:46.492Z,6.30
2022-11-17T03:58:46.477Z,6.20
2022-11-17T03:59:46.475Z,6.10
2022-11-17T04:00:46.524Z,6.00
2022-11-17T04:01:46.523Z,6.20
2022-11-17T04:02:46.448Z,5.80
2022-11-17T04:03:46.442Z,6.00
2022-11-17T04:04:46.433Z,5.60
2022-11-17T04:05:46.460Z,5.80
2022-11-17T04:06:46.443Z,5.70
2022-11-17T04:07:46.417Z,5.70
2022-11-17T04:08:46.407Z,5.40
2022-11-17T04:09:46.402Z,5.90
2022-11-17T04:10:46.430Z,5.60
2022-11-17T04:11:46.380Z,5.80
2022-11-17T04:12:46.387Z,6.10
2022-11-17T04:13:46.375Z,6.00
2022-11-17T04:14:46.355Z,5.80
2022-11-17T04:15:46.391Z,5.60
2022-11-17T04:16:46.341Z,5.70
2022-11-17T04:17:46.338Z,5.80
2022-11-17T04:18:46.322Z,5.40
2022-11-17T04:19:46.321Z,5.70
2022-11-17T04:20:46.338Z,5.60
2022-11-17T04:21:46.298Z,6.10
2022-11-17T04:22:46.317Z,6.10
2022-11-17T04:23:46.324Z,5.80
2022-11-17T04:24:46.290Z,5.90
2022-11-17T04:25:46.301Z,6.10
2022-11-17T04:26:46.276Z,5.90
2022-11-17T04:27:46.262Z,5.90
2022-11-17T04:28:46.343Z,6.00
2022-11-17T04:29:46.254Z,6.10
2022-11-17T04:30:46.265Z,5.90
2022-11-17T04:31:46.228Z,5.90
2022-11-17T04:32:46.225Z,5.80
2022-11-17T04:33:46.225Z,5.90
2022-11-17T04:34:46.221Z,6.20
2022-11-17T04:35:46.221Z,6.30
2022-11-17T04:36:46.198Z,6.00
2022-11-17T04:37:46.184Z,5.80
2022-11-17T04:38:46.256Z,6.00
2022-11-17T04:39:46.173Z,5.60
2022-11-17T04:40:46.192Z,5.30
2022-11-17T04:41:46.168Z,5.60
2022-11-17T04:42:46.146Z,5.60
2022-11-17T04:43:46.146Z,5.50
2022-11-17T04:44:46.130Z,5.80
2022-11-17T04:45:46.144Z,5.50
2022-11-17T04:46:46.187Z,5.40
2022-11-17T04:47:46.099Z,7.30
2022-11-17T04:48:46.089Z,7.20
2022-11-17T04:49:46.082Z,5.50
2022-11-17T04:50:46.071Z,6.30
2022-11-17T04:51:46.565Z,6.00
2022-11-17T04:52:46.054Z,6.80
2022-11-17T04:53:46.060Z,6.80
2022-11-17T04:54:46.057Z,6.70
2022-11-17T04:55:46.040Z,6.50
2022-11-17T04:56:46.060Z,6.80
2022-11-17T04:57:46.031Z,6.70
2022-11-17T04:58:46.028Z,6.10
2022-11-17T04:59:46.070Z,6.40
2022-11-17T05:00:46.035Z,6.60
2022-11-17T05:01:46.077Z,7.00
2022-11-17T05:02:46.070Z,6.30
2022-11-17T05:03:45.980Z,6.10
2022-11-17T05:04:45.976Z,5.90
2022-11-17T05:05:45.956Z,6.00
2022-11-17T05:06:45.997Z,5.80
2022-11-17T05:07:45.950Z,5.80
2022-11-17T05:08:45.941Z,6.30
2022-11-17T05:09:45.926Z,5.90
2022-11-17T05:10:45.945Z,6.30
2022-11-17T05:11:45.940Z,6.00
2022-11-17T05:12:45.916Z,6.20
2022-11-17T05:13:45.903Z,5.50
2022-11-17T05:14:45.890Z,6.30
2022-11-17T05:15:45.892Z,6.50
2022-11-17T05:16:45.902Z,5.90
2022-11-17T05:17:45.872Z,5.90
2022-11-17T05:18:45.870Z,5.70
2022-11-17T05:19:45.880Z,5.90
2022-11-17T05:20:45.866Z,5.80
2022-11-17T05:21:45.870Z,6.00
2022-11-17T05:22:45.851Z,6.00
2022-11-17T05:23:45.827Z,6.60
2022-11-17T05:24:45.831Z,5.70
2022-11-17T05:25:45.837Z,6.00
2022-11-17T05:26:45.900Z,5.70
2022-11-17T05:27:46.558Z,5.70
2022-11-17T05:28:45.794Z,6.50
2022-11-17T05:29:45.773Z,6.00
2022-11-17T05:30:45.791Z,6.00
2022-11-17T05:31:45.782Z,6.10
2022-11-17T05:32:45.762Z,6.00
2022-11-17T05:33:45.758Z,5.90
2022-11-17T05:34:45.741Z,6.10
2022-11-17T05:35:45.743Z,5.80
2022-11-17T05:36:45.753Z,5.80
2022-11-17T05:37:45.856Z,5.90
2022-11-17T05:38:45.738Z,6.00
2022-11-17T05:39:45.714Z,6.10
2022-11-17T05:40:45.709Z,5.70
2022-11-17T05:41:45.734Z,6.20
2022-11-17T05:42:45.765Z,6.00
2022-11-17T05:43:46.680Z,5.90
2022-11-17T05:44:45.668Z,5.80
2022-11-17T05:45:45.671Z,5.60
2022-11-17T05:46:45.689Z,5.60
2022-11-17T05:47:45.656Z,6.10
2022-11-17T05:48:45.709Z,5.50
2022-11-17T05:49:45.622Z,6.00
2022-11-17T05:50:45.633Z,5.70
2022-11-17T05:51:48.607Z,5.80
2022-11-17T05:52:47.629Z,5.60
2022-11-17T05:53:45.603Z,6.00
2022-11-17T05:54:45.590Z,6.20
2022-11-17T05:55:45.579Z,5.90
2022-11-17T05:56:45.601Z,6.00
2022-11-17T05:57:45.572Z,6.10
2022-11-17T05:58:45.563Z,6.50
2022-11-17T05:59:45.550Z,6.50
2022-11-17T06:00:45.553Z,6.00
2022-11-17T06:01:45.618Z,6.20
2022-11-17T06:02:45.537Z,5.80
2022-11-17T06:03:45.523Z,6.40
2022-11-17T06:04:45.523Z,7.50
2022-11-17T06:05:45.506Z,7.70
2022-11-17T06:06:45.528Z,8.00
2022-11-17T06:07:45.490Z,7.30
2022-11-17T06:08:45.567Z,6.80
2022-11-17T06:09:45.484Z,6.10
2022-11-17T06:10:45.474Z,6.30
2022-11-17T06:11:45.464Z,5.80
2022-11-17T06:12:45.482Z,5.60
2022-11-17T06:13:45.451Z,5.30
2022-11-17T06:14:46.491Z,5.60
2022-11-17T06:15:45.443Z,5.80
2022-11-17T06:16:45.425Z,5.60
2022-11-17T06:17:45.445Z,5.90
2022-11-17T06:18:45.413Z,5.50
2022-11-17T06:20:19.431Z,6.00
2022-11-17T06:20:45.399Z,6.00
2022-11-17T06:22:10.702Z,5.20
2022-11-17T06:22:48.726Z,4.50
2022-11-17T06:23:46.380Z,4.30
2022-11-17T06:24:45.373Z,4.20
2022-11-17T06:25:45.366Z,4.30
2022-11-17T06:26:45.366Z,5.00
2022-11-17T06:27:45.372Z,4.30
2022-11-17T06:28:45.349Z,5.00
2022-11-17T06:29:45.415Z,4.80
2022-11-17T06:30:45.332Z,4.30
2022-11-17T06:31:45.322Z,4.80
2022-11-17T06:32:45.333Z,4.70
2022-11-17T06:33:45.300Z,4.30
2022-11-17T06:34:49.092Z,4.10
2022-11-17T06:35:46.290Z,5.10
2022-11-17T06:36:45.274Z,4.80
2022-11-17T06:37:45.316Z,5.00
2022-11-17T06:38:45.258Z,4.80
2022-11-17T06:39:45.254Z,4.70
2022-11-17T06:40:45.239Z,5.50
2022-11-17T06:41:45.251Z,5.70
2022-11-17T06:42:45.259Z,6.30
2022-11-17T06:43:45.228Z,5.90
2022-11-17T06:44:45.230Z,6.50
2022-11-17T06:45:45.214Z,6.50
2022-11-17T06:46:48.955Z,6.20
2022-11-17T06:47:46.227Z,6.20
2022-11-17T06:48:45.189Z,5.90
2022-11-17T06:49:45.180Z,5.20
2022-11-17T06:50:45.171Z,5.30
2022-11-17T06:51:45.767Z,5.00
2022-11-17T06:52:46.188Z,5.40
2022-11-17T06:53:45.154Z,6.00
2022-11-17T06:54:45.145Z,5.80
2022-11-17T06:55:45.137Z,6.80
2022-11-17T06:56:45.128Z,5.90
2022-11-17T06:57:50.319Z,12.20
2022-11-17T06:58:47.112Z,9.20
2022-11-17T06:59:45.101Z,6.60
2022-11-17T07:00:45.115Z,6.30
2022-11-17T07:01:45.089Z,6.40
2022-11-17T07:02:45.112Z,5.20
2022-11-17T07:03:45.077Z,5.30
2022-11-17T07:04:45.077Z,5.30
2022-11-17T07:05:45.071Z,6.30
2022-11-17T07:06:45.058Z,8.20
2022-11-17T07:07:45.073Z,6.50
2022-11-17T07:08:45.039Z,5.20
2022-11-17T07:09:45.030Z,5.10
2022-11-17T07:10:49.161Z,5.00
2022-11-17T07:11:46.012Z,4.90
2022-11-17T07:12:45.034Z,5.20
2022-11-17T07:13:44.997Z,4.70
2022-11-17T07:14:45.993Z,5.00
2022-11-17T07:15:44.983Z,5.10
2022-11-17T07:16:44.977Z,5.20
2022-11-17T07:17:44.993Z,4.60
2022-11-17T07:18:44.974Z,4.80
2022-11-17T07:19:44.953Z,5.00
2022-11-17T07:20:44.947Z,5.20
2022-11-17T07:21:44.944Z,4.90
2022-11-17T07:22:44.959Z,6.40
2022-11-17T07:23:44.928Z,5.30
2022-11-17T07:24:44.922Z,5.10
2022-11-17T07:25:44.898Z,4.90
2022-11-17T07:26:44.899Z,5.00
2022-11-17T07:27:44.927Z,4.90
2022-11-17T07:28:44.889Z,5.30
2022-11-17T07:29:44.884Z,5.20
2022-11-17T07:30:44.874Z,4.90
2022-11-17T07:31:44.869Z,5.10
2022-11-17T07:32:44.889Z,5.20
2022-11-17T07:33:44.856Z,5.10
2022-11-17T07:34:44.910Z,4.80
2022-11-17T07:35:45.836Z,4.20
2022-11-17T07:36:44.830Z,4.70
2022-11-17T07:37:44.840Z,4.60
2022-11-17T07:38:44.814Z,4.80
2022-11-17T07:39:44.803Z,4.50
2022-11-17T07:40:44.815Z,5.00
2022-11-17T07:41:44.795Z,4.80
2022-11-17T07:42:44.820Z,5.10
2022-11-17T07:43:44.767Z,5.20
2022-11-17T07:44:44.759Z,5.10
2022-11-17T07:45:44.767Z,4.80
2022-11-17T07:46:44.739Z,5.20
2022-11-17T07:47:45.777Z,5.00
2022-11-17T07:48:44.733Z,8.40
2022-11-17T07:49:44.730Z,7.80
2022-11-17T07:50:44.793Z,8.40
2022-11-17T07:51:44.710Z,7.30
2022-11-17T07:52:44.742Z,6.10
2022-11-17T07:53:44.710Z,5.10
2022-11-17T07:54:44.703Z,4.50
2022-11-17T07:55:44.681Z,5.30
2022-11-17T07:56:44.670Z,4.70
2022-11-17T07:57:44.665Z,4.30
2022-11-17T07:58:44.690Z,4.80
2022-11-17T07:59:44.651Z,4.50
2022-11-17T08:00:44.695Z,4.60
2022-11-17T08:01:44.645Z,5.60
2022-11-17T08:02:44.632Z,5.30
2022-11-17T08:03:44.750Z,6.20
2022-11-17T08:04:44.616Z,6.10
2022-11-17T08:05:44.612Z,5.30
2022-11-17T08:06:44.604Z,5.00
2022-11-17T08:07:44.586Z,5.20
2022-11-17T08:08:44.617Z,4.60
2022-11-17T08:09:44.577Z,4.90
2022-11-17T08:10:44.567Z,5.00
2022-11-17T08:11:44.566Z,4.80
2022-11-17T08:12:44.556Z,4.70
2022-11-17T08:13:44.570Z,4.50
2022-11-17T08:14:44.537Z,2.50
2022-11-17T08:15:44.532Z,2.50
2022-11-17T08:16:44.523Z,2.90
2022-11-17T08:17:44.522Z,3.60
2022-11-17T08:18:50.543Z,4.10
2022-11-17T08:19:46.504Z,4.50
2022-11-17T08:20:44.493Z,4.70
2022-11-17T08:21:44.482Z,4.50
2022-11-17T08:22:44.549Z,3.20
2022-11-17T08:23:44.495Z,4.10
2022-11-17T08:24:44.465Z,3.80
2022-11-17T08:25:44.461Z,3.90
2022-11-17T08:26:44.455Z,4.40
2022-11-17T08:27:44.439Z,4.20
2022-11-17T08:28:44.449Z,4.80
2022-11-17T08:29:45.418Z,2.70
2022-11-17T08:30:44.423Z,2.40
2022-11-17T08:31:44.417Z,2.80
2022-11-17T08:32:44.402Z,2.90
2022-11-17T08:33:44.418Z,3.90
2022-11-17T08:34:44.390Z,2.90
2022-11-17T08:35:44.377Z,2.90
2022-11-17T08:36:44.372Z,2.80
2022-11-17T08:37:44.373Z,3.50
2022-11-17T08:38:44.388Z,4.30
2022-11-17T08:39:44.344Z,4.80
2022-11-17T08:40:44.345Z,4.80
2022-11-17T08:41:44.327Z,4.00
2022-11-17T08:42:44.333Z,4.40
2022-11-17T08:43:44.347Z,4.50
2022-11-17T08:44:44.308Z,4.50
2022-11-17T08:45:44.312Z,4.60
2022-11-17T08:46:44.309Z,3.50
2022-11-17T08:47:44.290Z,3.50
2022-11-17T08:48:44.304Z,2.80
2022-11-17T08:49:44.270Z,3.00
2022-11-17T08:50:44.272Z,2.80
2022-11-17T08:51:44.254Z,2.60
2022-11-17T08:52:44.248Z,2.60
2022-11-17T08:53:44.266Z,3.30
2022-11-17T08:54:44.302Z,3.00
2022-11-17T08:55:44.285Z,3.10
2022-11-17T08:56:44.262Z,3.70
2022-11-17T08:57:44.213Z,2.50
2022-11-17T08:58:44.233Z,2.30
2022-11-17T08:59:44.191Z,2.10
2022-11-17T09:00:44.268Z,3.40
2022-11-17T09:01:44.317Z,3.10
2022-11-17T09:02:44.168Z,3.60
2022-11-17T09:03:44.178Z,2.90
2022-11-17T09:04:45.156Z,3.00
2022-11-17T09:05:44.179Z,2.70
2022-11-17T09:06:44.137Z,3.40
2022-11-17T09:07:44.159Z,3.40
2022-11-17T09:08:46.095Z,3.20
2022-11-17T09:09:45.121Z,2.60
2022-11-17T09:10:44.211Z,2.40
2022-11-17T09:11:44.101Z,2.30
2022-11-17T09:12:44.088Z,2.30
2022-11-17T09:13:44.119Z,3.20
2022-11-17T09:14:44.078Z,3.40
2022-11-17T09:15:44.072Z,3.00
2022-11-17T09:16:44.051Z,3.00
2022-11-17T09:17:45.056Z,2.90
2022-11-17T09:18:44.072Z,2.70
2022-11-17T09:19:44.045Z,2.40
2022-11-17T09:20:45.886Z,2.40
2022-11-17T09:21:45.033Z,2.30
2022-11-17T09:22:44.015Z,2.40
2022-11-17T09:23:44.045Z,2.20
2022-11-17T09:24:44.000Z,2.40
2022-11-17T09:25:43.996Z,2.20
2022-11-17T09:26:44.075Z,2.10
2022-11-17T09:27:43.988Z,2.30
2022-11-17T09:28:44.044Z,2.30
2022-11-17T09:29:43.975Z,2.50
2022-11-17T09:30:43.961Z,2.40
2022-11-17T09:31:43.970Z,3.90
2022-11-17T09:32:43.943Z,3.20
2022-11-17T09:33:43.985Z,3.00
2022-11-17T09:34:44.031Z,3.20
2022-11-17T09:35:43.917Z,3.30
2022-11-17T09:36:43.934Z,3.20
2022-11-17T09:37:43.922Z,2.80
2022-11-17T09:38:43.917Z,3.40
2022-11-17T09:39:43.884Z,2.80
2022-11-17T09:40:43.877Z,2.60
2022-11-17T09:41:43.874Z,2.50
2022-11-17T09:42:43.926Z,2.80
2022-11-17T09:43:43.862Z,2.60
2022-11-17T09:44:43.863Z,2.80
2022-11-17T09:45:43.836Z,2.40
2022-11-17T09:46:43.832Z,2.70
2022-11-17T09:47:43.830Z,2.70
2022-11-17T09:48:43.824Z,2.80
2022-11-17T09:49:43.850Z,2.50
2022-11-17T09:50:43.816Z,2.60
2022-11-17T09:51:43.795Z,2.70
2022-11-17T09:52:43.790Z,2.30
2022-11-17T09:53:43.782Z,2.70
2022-11-17T09:54:43.789Z,2.60
2022-11-17T09:55:44.758Z,2.50
2022-11-17T09:56:43.767Z,2.60
2022-11-17T09:57:43.753Z,2.70
2022-11-17T09:58:43.814Z,2.70
2022-11-17T09:59:43.769Z,2.50
2022-11-17T10:00:43.723Z,2.50
2022-11-17T10:01:43.755Z,2.90
2022-11-17T10:02:43.709Z,2.50
2022-11-17T10:03:46.048Z,2.90
2022-11-17T10:04:44.726Z,2.70
2022-11-17T10:05:43.682Z,2.80
2022-11-17T10:06:43.678Z,2.80
2022-11-17T10:07:43.658Z,2.70
2022-11-17T10:08:44.669Z,3.00
2022-11-17T10:09:43.681Z,2.70
2022-11-17T10:10:43.653Z,2.70
2022-11-17T10:11:43.644Z,2.80
2022-11-17T10:12:43.658Z,3.00
2022-11-17T10:13:43.633Z,3.70
2022-11-17T10:14:43.755Z,3.50
2022-11-17T10:15:43.610Z,4.00
2022-11-17T10:16:43.605Z,3.70
2022-11-17T10:17:43.602Z,3.40
2022-11-17T10:18:43.587Z,2.90
2022-11-17T10:19:43.608Z,2.80
2022-11-17T10:20:43.575Z,2.60
2022-11-17T10:21:43.572Z,2.70
2022-11-17T10:22:43.547Z,3.00
2022-11-17T10:23:47.148Z,3.00
2022-11-17T10:24:44.577Z,4.10
2022-11-17T10:25:43.542Z,2.70
2022-11-17T10:26:43.532Z,2.70
2022-11-17T10:27:43.536Z,2.70
2022-11-17T10:28:43.524Z,4.10
2022-11-17T10:29:43.544Z,5.10
2022-11-17T10:30:43.582Z,4.00
2022-11-17T10:31:43.501Z,3.50
2022-11-17T10:32:47.938Z,5.50
2022-11-17T10:33:44.578Z,5.70
2022-11-17T10:34:43.519Z,5.10
2022-11-17T10:35:43.469Z,5.30
2022-11-17T10:36:43.467Z,3.90
2022-11-17T10:37:43.455Z,4.30
2022-11-17T10:38:43.455Z,4.50
2022-11-17T10:39:43.465Z,4.30
2022-11-17T10:40:43.439Z,3.80
2022-11-17T10:41:43.429Z,3.80
2022-11-17T10:42:43.416Z,3.80
2022-11-17T10:43:43.410Z,3.50
2022-11-17T10:44:43.441Z,3.90
2022-11-17T10:45:43.390Z,3.50
2022-11-17T10:46:46.422Z,4.00
2022-11-17T10:47:44.385Z,4.30
2022-11-17T10:48:43.360Z,4.20
2022-11-17T10:49:44.385Z,4.40
2022-11-17T10:50:43.351Z,4.90
2022-11-17T10:51:43.357Z,6.30
2022-11-17T10:52:43.331Z,7.40
2022-11-17T10:53:46.012Z,4.20
2022-11-17T10:54:44.354Z,6.90
2022-11-17T10:55:43.321Z,7.20
2022-11-17T10:56:43.311Z,6.50
2022-11-17T10:57:43.302Z,6.10
2022-11-17T10:58:43.291Z,5.10
2022-11-17T10:59:43.312Z,5.10
2022-11-17T11:00:43.377Z,5.50
2022-11-17T11:01:43.308Z,5.80
2022-11-17T11:02:43.265Z,5.70
2022-11-17T11:03:43.265Z,5.70
2022-11-17T11:04:43.286Z,5.00
2022-11-17T11:05:43.236Z,5.60
2022-11-17T11:06:43.231Z,5.50
2022-11-17T11:07:43.231Z,5.00
2022-11-17T11:08:43.217Z,5.40
2022-11-17T11:09:43.217Z,5.40
2022-11-17T11:10:43.232Z,5.30
2022-11-17T11:11:43.203Z,5.70
2022-11-17T11:12:43.194Z,6.00
2022-11-17T11:13:43.176Z,5.60
2022-11-17T11:14:43.167Z,6.30
2022-11-17T11:15:43.189Z,6.30
2022-11-17T11:16:47.827Z,6.30
2022-11-17T11:17:45.156Z,5.50
2022-11-17T11:18:43.131Z,5.50
2022-11-17T11:19:43.129Z,5.50
2022-11-17T11:20:43.163Z,4.80
2022-11-17T11:21:43.112Z,5.20
2022-11-17T11:22:43.100Z,5.00
2022-11-17T11:23:43.102Z,5.50
2022-11-17T11:24:43.088Z,5.30
2022-11-17T11:25:43.109Z,5.50
2022-11-17T11:26:43.073Z,5.10
2022-11-17T11:27:43.071Z,5.20
2022-11-17T11:28:46.385Z,4.50
2022-11-17T11:29:45.051Z,5.00
2022-11-17T11:30:43.081Z,4.70
2022-11-17T11:31:43.038Z,4.00
2022-11-17T11:32:43.052Z,3.60
2022-11-17T11:33:43.028Z,3.70
2022-11-17T11:34:43.017Z,4.30
2022-11-17T11:35:43.043Z,4.10
2022-11-17T11:36:42.996Z,3.50
2022-11-17T11:37:42.995Z,3.80
2022-11-17T11:38:42.984Z,4.70
2022-11-17T11:39:42.984Z,3.50
2022-11-17T11:40:43.001Z,3.10
2022-11-17T11:41:42.959Z,3.20
2022-11-17T11:42:42.949Z,3.30
2022-11-17T11:43:42.948Z,3.90
2022-11-17T11:44:42.941Z,4.20
2022-11-17T11:45:42.962Z,4.20
2022-11-17T11:46:42.927Z,4.90
2022-11-17T11:47:42.915Z,4.80
2022-11-17T11:48:42.906Z,4.00
2022-11-17T11:49:42.898Z,3.30
2022-11-17T11:50:42.927Z,3.00
2022-11-17T11:51:42.876Z,2.30
2022-11-17T11:52:42.877Z,2.30
2022-11-17T11:53:42.868Z,2.10
2022-11-17T11:54:47.693Z,2.20
2022-11-17T11:55:44.879Z,1.70
2022-11-17T11:56:42.848Z,1.50
2022-11-17T11:57:42.844Z,1.70
2022-11-17T11:58:42.829Z,1.60
2022-11-17T11:59:42.832Z,1.80
2022-11-17T12:00:42.845Z,1.70
2022-11-17T12:01:42.806Z,1.50
2022-11-17T12:02:42.864Z,1.90
2022-11-17T12:03:42.858Z,1.50
2022-11-17T12:04:42.787Z,1.60
2022-11-17T12:05:42.812Z,1.70
2022-11-17T12:06:42.781Z,1.60
2022-11-17T12:07:42.764Z,1.60
2022-11-17T12:08:42.763Z,1.60
2022-11-17T12:09:42.752Z,1.80
2022-11-17T12:10:42.777Z,1.90
2022-11-17T12:11:42.731Z,1.60
2022-11-17T12:12:42.724Z,1.40
2022-11-17T12:13:48.429Z,1.20
2022-11-17T12:14:44.701Z,1.40
2022-11-17T12:15:42.771Z,1.40
2022-11-17T12:16:42.708Z,1.60
2022-11-17T12:17:42.687Z,1.90
2022-11-17T12:18:42.680Z,2.00
2022-11-17T12:19:42.675Z,2.40
2022-11-17T12:21:14.598Z,1.80
2022-11-17T12:21:42.874Z,2.40
2022-11-17T12:22:42.655Z,1.90
2022-11-17T12:23:42.638Z,1.90
2022-11-17T12:24:42.724Z,2.50
2022-11-17T12:25:42.626Z,2.60
2022-11-17T12:26:42.637Z,3.00
2022-11-17T12:27:42.732Z,2.70
2022-11-17T12:28:42.658Z,2.70
2022-11-17T12:29:42.587Z,2.30
2022-11-17T12:30:42.596Z,2.50
2022-11-17T12:31:42.594Z,2.70
2022-11-17T12:32:42.568Z,2.50
2022-11-17T12:33:42.593Z,2.20
2022-11-17T12:34:42.585Z,1.90
2022-11-17T12:35:42.546Z,1.90
2022-11-17T12:36:42.580Z,2.00
2022-11-17T12:37:42.539Z,2.20
2022-11-17T12:38:42.521Z,2.00
2022-11-17T12:39:42.515Z,1.80
2022-11-17T12:40:42.505Z,1.70
2022-11-17T12:41:42.523Z,1.90
2022-11-17T12:42:42.483Z,1.40
2022-11-17T12:43:42.484Z,1.70
2022-11-17T12:44:42.487Z,1.60
2022-11-17T12:45:42.461Z,1.10
2022-11-17T12:46:42.500Z,1.50
2022-11-17T12:47:42.502Z,1.70
2022-11-17T12:48:42.496Z,2.10
2022-11-17T12:49:42.477Z,1.80
2022-11-17T12:50:42.423Z,1.70
2022-11-17T12:51:42.446Z,1.90
2022-11-17T12:52:42.415Z,2.00
2022-11-17T12:53:42.405Z,2.40
2022-11-17T12:54:42.401Z,3.30
2022-11-17T12:55:42.395Z,3.10
2022-11-17T12:56:42.441Z,2.50
2022-11-17T12:57:42.365Z,2.40
2022-11-17T12:58:42.359Z,2.10
2022-11-17T12:59:42.362Z,1.80
2022-11-17T13:00:42.350Z,1.70
2022-11-17T13:01:42.422Z,1.90
2022-11-17T13:02:42.350Z,1.40
2022-11-17T13:03:42.321Z,2.00
2022-11-17T13:04:46.448Z,1.90
2022-11-17T13:05:44.331Z,1.40
2022-11-17T13:06:42.329Z,1.10
2022-11-17T13:07:42.296Z,1.10
2022-11-17T13:08:42.292Z,1.30
2022-11-17T13:09:42.295Z,1.60
2022-11-17T13:10:42.280Z,1.40
2022-11-17T13:11:42.311Z,1.40
2022-11-17T13:12:42.254Z,1.20
2022-11-17T13:13:45.783Z,1.20
2022-11-17T13:14:43.247Z,1.30
2022-11-17T13:15:42.231Z,1.50
2022-11-17T13:16:42.263Z,1.30
2022-11-17T13:17:42.226Z,1.00
2022-11-17T13:18:42.397Z,1.10